sensor_id;sensor_type;location;lat;lon;timestamp;P1;durP1;ratioP1;P2;durP2;ratioP2
50872;SDS011;72604;40.088;18.346;2023-09-18T00:01:58;8.65;;;7.57;;
50872;SDS011;72604;40.088;18.346;2023-09-18T00:05:00;9.32;;;6.95;;
50872;SDS011;72604;40.088;18.346;2023-09-18T00:08:02;7.75;;;6.90;;
50872;SDS011;72604;40.088;18.346;2023-09-18T00:11:04;9.65;;;7.70;;
50872;SDS011;72604;40.088;18.346;2023-09-18T00:14:09;9.55;;;6.60;;
50872;SDS011;72604;40.088;18.346;2023-09-18T00:17:11;9.77;;;6.82;;
50872;SDS011;72604;40.088;18.346;2023-09-18T00:20:13;7.95;;;7.13;;
50872;SDS011;72604;40.088;18.346;2023-09-18T00:23:18;8.40;;;6.53;;
50872;SDS011;72604;40.088;18.346;2023-09-18T00:26:20;6.93;;;6.22;;
50872;SDS011;72604;40.088;18.346;2023-09-18T00:29:26;9.25;;;6.88;;
50872;SDS011;72604;40.088;18.346;2023-09-18T00:32:28;8.52;;;7.65;;
50872;SDS011;72604;40.088;18.346;2023-09-18T00:35:30;11.25;;;8.75;;
50872;SDS011;72604;40.088;18.346;2023-09-18T00:38:32;7.95;;;7.10;;
50872;SDS011;72604;40.088;18.346;2023-09-18T00:41:34;7.63;;;6.88;;
50872;SDS011;72604;40.088;18.346;2023-09-18T00:44:35;8.77;;;6.97;;
50872;SDS011;72604;40.088;18.346;2023-09-18T00:47:37;8.68;;;7.20;;
50872;SDS011;72604;40.088;18.346;2023-09-18T00:50:39;8.25;;;6.97;;
50872;SDS011;72604;40.088;18.346;2023-09-18T00:53:43;7.68;;;6.88;;
50872;SDS011;72604;40.088;18.346;2023-09-18T00:56:46;8.13;;;6.30;;
50872;SDS011;72604;40.088;18.346;2023-09-18T00:59:49;8.17;;;7.00;;
50872;SDS011;72604;40.088;18.346;2023-09-18T01:02:52;8.45;;;7.10;;
50872;SDS011;72604;40.088;18.346;2023-09-18T01:05:54;9.85;;;7.53;;
50872;SDS011;72604;40.088;18.346;2023-09-18T01:08:57;10.07;;;8.57;;
50872;SDS011;72604;40.088;18.346;2023-09-18T01:18:12;9.30;;;8.05;;
50872;SDS011;72604;40.088;18.346;2023-09-18T01:21:15;9.63;;;8.63;;
50872;SDS011;72604;40.088;18.346;2023-09-18T01:24:17;10.60;;;8.45;;
50872;SDS011;72604;40.088;18.346;2023-09-18T01:27:19;10.10;;;8.27;;
50872;SDS011;72604;40.088;18.346;2023-09-18T01:30:21;9.63;;;7.45;;
50872;SDS011;72604;40.088;18.346;2023-09-18T01:33:23;8.77;;;7.78;;
50872;SDS011;72604;40.088;18.346;2023-09-18T01:36:25;9.27;;;7.93;;
50872;SDS011;72604;40.088;18.346;2023-09-18T01:39:27;10.00;;;8.65;;
50872;SDS011;72604;40.088;18.346;2023-09-18T01:42:33;11.18;;;8.93;;
50872;SDS011;72604;40.088;18.346;2023-09-18T01:45:36;11.90;;;9.25;;
50872;SDS011;72604;40.088;18.346;2023-09-18T01:48:44;11.98;;;8.68;;
50872;SDS011;72604;40.088;18.346;2023-09-18T01:51:47;9.45;;;8.43;;
50872;SDS011;72604;40.088;18.346;2023-09-18T01:54:50;9.73;;;8.73;;
50872;SDS011;72604;40.088;18.346;2023-09-18T01:57:52;11.90;;;9.52;;
50872;SDS011;72604;40.088;18.346;2023-09-18T02:00:55;10.30;;;9.23;;
50872;SDS011;72604;40.088;18.346;2023-09-18T02:03:57;10.50;;;9.48;;
50872;SDS011;72604;40.088;18.346;2023-09-18T02:06:59;10.60;;;9.50;;
50872;SDS011;72604;40.088;18.346;2023-09-18T02:10:01;10.70;;;9.60;;
50872;SDS011;72604;40.088;18.346;2023-09-18T02:13:03;11.75;;;9.73;;
50872;SDS011;72604;40.088;18.346;2023-09-18T02:16:06;11.48;;;9.57;;
50872;SDS011;72604;40.088;18.346;2023-09-18T02:19:09;14.85;;;11.15;;
50872;SDS011;72604;40.088;18.346;2023-09-18T02:22:11;13.60;;;11.32;;
50872;SDS011;72604;40.088;18.346;2023-09-18T02:25:13;13.77;;;10.25;;
50872;SDS011;72604;40.088;18.346;2023-09-18T02:28:15;10.52;;;9.35;;
50872;SDS011;72604;40.088;18.346;2023-09-18T02:31:17;10.23;;;9.05;;
50872;SDS011;72604;40.088;18.346;2023-09-18T02:34:19;13.65;;;12.30;;
50872;SDS011;72604;40.088;18.346;2023-09-18T02:37:21;12.55;;;10.80;;
50872;SDS011;72604;40.088;18.346;2023-09-18T02:40:24;11.13;;;9.95;;
50872;SDS011;72604;40.088;18.346;2023-09-18T02:43:26;11.73;;;9.70;;
50872;SDS011;72604;40.088;18.346;2023-09-18T02:46:28;10.32;;;9.25;;
50872;SDS011;72604;40.088;18.346;2023-09-18T02:49:31;11.68;;;9.88;;
50872;SDS011;72604;40.088;18.346;2023-09-18T02:52:33;12.82;;;11.57;;
50872;SDS011;72604;40.088;18.346;2023-09-18T02:55:35;13.68;;;12.13;;
50872;SDS011;72604;40.088;18.346;2023-09-18T02:58:37;13.65;;;12.20;;
50872;SDS011;72604;40.088;18.346;2023-09-18T03:01:39;12.18;;;10.98;;
50872;SDS011;72604;40.088;18.346;2023-09-18T03:04:41;11.90;;;10.70;;
50872;SDS011;72604;40.088;18.346;2023-09-18T03:07:43;11.18;;;10.15;;
50872;SDS011;72604;40.088;18.346;2023-09-18T03:10:47;11.90;;;9.65;;
50872;SDS011;72604;40.088;18.346;2023-09-18T03:13:49;10.98;;;9.80;;
50872;SDS011;72604;40.088;18.346;2023-09-18T03:16:53;10.13;;;9.10;;
50872;SDS011;72604;40.088;18.346;2023-09-18T03:19:55;10.38;;;8.63;;
50872;SDS011;72604;40.088;18.346;2023-09-18T03:22:59;9.75;;;8.15;;
50872;SDS011;72604;40.088;18.346;2023-09-18T03:26:01;8.38;;;7.53;;
50872;SDS011;72604;40.088;18.346;2023-09-18T03:29:03;8.85;;;7.68;;
50872;SDS011;72604;40.088;18.346;2023-09-18T03:32:05;9.80;;;8.85;;
50872;SDS011;72604;40.088;18.346;2023-09-18T03:35:08;10.40;;;8.82;;
50872;SDS011;72604;40.088;18.346;2023-09-18T03:38:17;11.68;;;9.77;;
50872;SDS011;72604;40.088;18.346;2023-09-18T03:41:20;11.55;;;9.57;;
50872;SDS011;72604;40.088;18.346;2023-09-18T03:44:21;13.13;;;9.88;;
50872;SDS011;72604;40.088;18.346;2023-09-18T03:47:25;9.85;;;7.97;;
50872;SDS011;72604;40.088;18.346;2023-09-18T03:50:27;8.73;;;7.80;;
50872;SDS011;72604;40.088;18.346;2023-09-18T03:53:29;9.60;;;7.80;;
50872;SDS011;72604;40.088;18.346;2023-09-18T03:56:31;8.38;;;7.55;;
50872;SDS011;72604;40.088;18.346;2023-09-18T03:59:33;9.55;;;7.57;;
50872;SDS011;72604;40.088;18.346;2023-09-18T04:02:35;9.85;;;8.23;;
50872;SDS011;72604;40.088;18.346;2023-09-18T04:05:37;9.23;;;7.50;;
50872;SDS011;72604;40.088;18.346;2023-09-18T04:08:39;8.13;;;7.32;;
50872;SDS011;72604;40.088;18.346;2023-09-18T04:11:41;8.15;;;7.30;;
50872;SDS011;72604;40.088;18.346;2023-09-18T04:14:43;11.25;;;8.10;;
50872;SDS011;72604;40.088;18.346;2023-09-18T04:17:45;10.13;;;7.90;;
50872;SDS011;72604;40.088;18.346;2023-09-18T04:20:47;11.60;;;8.25;;
50872;SDS011;72604;40.088;18.346;2023-09-18T04:23:49;9.77;;;8.65;;
50872;SDS011;72604;40.088;18.346;2023-09-18T04:26:57;10.13;;;8.73;;
50872;SDS011;72604;40.088;18.346;2023-09-18T04:29:59;12.13;;;9.50;;
50872;SDS011;72604;40.088;18.346;2023-09-18T04:33:03;16.80;;;10.18;;
50872;SDS011;72604;40.088;18.346;2023-09-18T04:36:05;15.48;;;11.65;;
50872;SDS011;72604;40.088;18.346;2023-09-18T04:39:07;11.85;;;9.25;;
50872;SDS011;72604;40.088;18.346;2023-09-18T04:42:09;10.20;;;8.95;;
50872;SDS011;72604;40.088;18.346;2023-09-18T04:45:11;12.05;;;9.18;;
50872;SDS011;72604;40.088;18.346;2023-09-18T04:48:13;10.45;;;9.35;;
50872;SDS011;72604;40.088;18.346;2023-09-18T04:51:15;11.43;;;9.70;;
50872;SDS011;72604;40.088;18.346;2023-09-18T04:54:17;10.90;;;8.38;;
50872;SDS011;72604;40.088;18.346;2023-09-18T04:57:19;13.30;;;7.95;;
50872;SDS011;72604;40.088;18.346;2023-09-18T05:00:21;7.75;;;6.97;;
50872;SDS011;72604;40.088;18.346;2023-09-18T05:03:26;9.87;;;6.83;;
50872;SDS011;72604;40.088;18.346;2023-09-18T05:06:32;6.95;;;6.25;;
50872;SDS011;72604;40.088;18.346;2023-09-18T05:09:33;8.55;;;7.10;;
50872;SDS011;72604;40.088;18.346;2023-09-18T05:12:39;6.85;;;5.95;;
50872;SDS011;72604;40.088;18.346;2023-09-18T05:15:42;9.43;;;6.47;;
50872;SDS011;72604;40.088;18.346;2023-09-18T05:18:45;9.00;;;6.50;;
50872;SDS011;72604;40.088;18.346;2023-09-18T05:21:46;9.18;;;6.38;;
50872;SDS011;72604;40.088;18.346;2023-09-18T05:24:50;6.32;;;5.43;;
50872;SDS011;72604;40.088;18.346;2023-09-18T05:27:53;6.38;;;5.78;;
50872;SDS011;72604;40.088;18.346;2023-09-18T05:30:58;8.68;;;6.15;;
50872;SDS011;72604;40.088;18.346;2023-09-18T05:34:00;8.57;;;6.32;;
50872;SDS011;72604;40.088;18.346;2023-09-18T05:37:02;8.40;;;7.60;;
50872;SDS011;72604;40.088;18.346;2023-09-18T05:40:05;10.13;;;8.65;;
50872;SDS011;72604;40.088;18.346;2023-09-18T05:43:08;9.47;;;7.70;;
50872;SDS011;72604;40.088;18.346;2023-09-18T05:46:11;8.95;;;8.05;;
50872;SDS011;72604;40.088;18.346;2023-09-18T05:49:13;11.45;;;8.40;;
50872;SDS011;72604;40.088;18.346;2023-09-18T05:52:15;10.27;;;9.20;;
50872;SDS011;72604;40.088;18.346;2023-09-18T05:55:17;9.95;;;8.93;;
50872;SDS011;72604;40.088;18.346;2023-09-18T05:58:19;11.13;;;9.63;;
50872;SDS011;72604;40.088;18.346;2023-09-18T06:01:26;10.48;;;8.57;;
50872;SDS011;72604;40.088;18.346;2023-09-18T06:04:28;14.57;;;9.20;;
50872;SDS011;72604;40.088;18.346;2023-09-18T06:07:30;10.48;;;8.93;;
50872;SDS011;72604;40.088;18.346;2023-09-18T06:10:32;11.93;;;8.52;;
50872;SDS011;72604;40.088;18.346;2023-09-18T06:13:34;12.00;;;8.68;;
50872;SDS011;72604;40.088;18.346;2023-09-18T06:16:36;11.30;;;9.73;;
50872;SDS011;72604;40.088;18.346;2023-09-18T06:19:38;12.32;;;9.05;;
50872;SDS011;72604;40.088;18.346;2023-09-18T06:22:40;9.95;;;7.43;;
50872;SDS011;72604;40.088;18.346;2023-09-18T06:25:42;11.10;;;7.95;;
50872;SDS011;72604;40.088;18.346;2023-09-18T06:28:44;10.32;;;6.72;;
50872;SDS011;72604;40.088;18.346;2023-09-18T06:31:46;7.90;;;6.00;;
50872;SDS011;72604;40.088;18.346;2023-09-18T06:34:48;5.97;;;5.38;;
50872;SDS011;72604;40.088;18.346;2023-09-18T06:37:50;7.47;;;4.93;;
50872;SDS011;72604;40.088;18.346;2023-09-18T06:40:52;7.25;;;4.93;;
50872;SDS011;72604;40.088;18.346;2023-09-18T06:43:54;7.68;;;4.80;;
50872;SDS011;72604;40.088;18.346;2023-09-18T06:46:56;8.13;;;4.90;;
50872;SDS011;72604;40.088;18.346;2023-09-18T06:49:58;6.13;;;4.72;;
50872;SDS011;72604;40.088;18.346;2023-09-18T06:53:02;6.70;;;4.70;;
50872;SDS011;72604;40.088;18.346;2023-09-18T06:56:04;5.65;;;4.70;;
50872;SDS011;72604;40.088;18.346;2023-09-18T06:59:06;4.78;;;4.28;;
50872;SDS011;72604;40.088;18.346;2023-09-18T07:02:08;4.78;;;4.35;;
50872;SDS011;72604;40.088;18.346;2023-09-18T07:05:11;4.35;;;3.95;;
50872;SDS011;72604;40.088;18.346;2023-09-18T07:08:13;4.90;;;4.35;;
50872;SDS011;72604;40.088;18.346;2023-09-18T07:11:17;5.13;;;4.43;;
50872;SDS011;72604;40.088;18.346;2023-09-18T07:14:19;6.07;;;4.00;;
50872;SDS011;72604;40.088;18.346;2023-09-18T07:17:21;4.35;;;3.90;;
50872;SDS011;72604;40.088;18.346;2023-09-18T07:20:23;5.07;;;4.57;;
50872;SDS011;72604;40.088;18.346;2023-09-18T07:23:25;4.32;;;3.90;;
50872;SDS011;72604;40.088;18.346;2023-09-18T07:26:27;4.85;;;3.80;;
50872;SDS011;72604;40.088;18.346;2023-09-18T07:29:29;7.30;;;4.72;;
50872;SDS011;72604;40.088;18.346;2023-09-18T07:32:31;6.50;;;4.40;;
50872;SDS011;72604;40.088;18.346;2023-09-18T07:35:37;7.53;;;4.68;;
50872;SDS011;72604;40.088;18.346;2023-09-18T07:38:39;6.38;;;4.05;;
50872;SDS011;72604;40.088;18.346;2023-09-18T07:41:44;5.35;;;4.28;;
50872;SDS011;72604;40.088;18.346;2023-09-18T07:44:47;5.78;;;4.38;;
50872;SDS011;72604;40.088;18.346;2023-09-18T07:47:48;7.30;;;4.90;;
50872;SDS011;72604;40.088;18.346;2023-09-18T07:50:50;4.50;;;4.07;;
50872;SDS011;72604;40.088;18.346;2023-09-18T07:53:53;5.78;;;4.13;;
50872;SDS011;72604;40.088;18.346;2023-09-18T07:56:55;6.10;;;4.47;;
50872;SDS011;72604;40.088;18.346;2023-09-18T07:59:57;5.55;;;3.92;;
50872;SDS011;72604;40.088;18.346;2023-09-18T08:02:59;4.97;;;4.30;;
50872;SDS011;72604;40.088;18.346;2023-09-18T08:06:02;7.30;;;4.00;;
50872;SDS011;72604;40.088;18.346;2023-09-18T08:09:06;5.50;;;3.92;;
50872;SDS011;72604;40.088;18.346;2023-09-18T08:12:11;5.00;;;4.15;;
50872;SDS011;72604;40.088;18.346;2023-09-18T08:15:13;5.05;;;4.15;;
50872;SDS011;72604;40.088;18.346;2023-09-18T08:18:15;5.40;;;3.63;;
50872;SDS011;72604;40.088;18.346;2023-09-18T08:21:17;5.30;;;3.90;;
50872;SDS011;72604;40.088;18.346;2023-09-18T08:24:19;4.25;;;3.40;;
50872;SDS011;72604;40.088;18.346;2023-09-18T08:27:23;5.65;;;4.00;;
50872;SDS011;72604;40.088;18.346;2023-09-18T08:30:25;6.78;;;3.97;;
50872;SDS011;72604;40.088;18.346;2023-09-18T08:33:27;9.90;;;4.40;;
50872;SDS011;72604;40.088;18.346;2023-09-18T08:36:29;7.55;;;4.40;;
50872;SDS011;72604;40.088;18.346;2023-09-18T08:39:32;9.13;;;4.32;;
50872;SDS011;72604;40.088;18.346;2023-09-18T08:42:35;5.22;;;4.18;;
50872;SDS011;72604;40.088;18.346;2023-09-18T08:45:40;8.93;;;4.07;;
50872;SDS011;72604;40.088;18.346;2023-09-18T08:48:45;5.13;;;3.80;;
50872;SDS011;72604;40.088;18.346;2023-09-18T08:51:47;7.15;;;4.25;;
50872;SDS011;72604;40.088;18.346;2023-09-18T08:54:49;4.82;;;3.90;;
50872;SDS011;72604;40.088;18.346;2023-09-18T08:57:52;7.72;;;4.43;;
50872;SDS011;72604;40.088;18.346;2023-09-18T09:00:55;5.13;;;4.25;;
50872;SDS011;72604;40.088;18.346;2023-09-18T09:03:59;8.63;;;4.63;;
50872;SDS011;72604;40.088;18.346;2023-09-18T09:07:02;8.05;;;5.00;;
50872;SDS011;72604;40.088;18.346;2023-09-18T09:10:04;7.10;;;4.97;;
50872;SDS011;72604;40.088;18.346;2023-09-18T09:13:06;5.57;;;4.20;;
50872;SDS011;72604;40.088;18.346;2023-09-18T09:16:10;8.30;;;5.32;;
50872;SDS011;72604;40.088;18.346;2023-09-18T09:19:12;7.82;;;4.72;;
50872;SDS011;72604;40.088;18.346;2023-09-18T09:22:20;8.20;;;5.05;;
50872;SDS011;72604;40.088;18.346;2023-09-18T09:25:23;10.75;;;5.40;;
50872;SDS011;72604;40.088;18.346;2023-09-18T09:28:29;8.20;;;5.78;;
50872;SDS011;72604;40.088;18.346;2023-09-18T09:31:31;8.13;;;4.82;;
50872;SDS011;72604;40.088;18.346;2023-09-18T09:34:33;7.05;;;5.07;;
50872;SDS011;72604;40.088;18.346;2023-09-18T09:37:38;7.78;;;5.15;;
50872;SDS011;72604;40.088;18.346;2023-09-18T09:40:41;8.75;;;5.00;;
50872;SDS011;72604;40.088;18.346;2023-09-18T09:43:43;4.53;;;4.00;;
50872;SDS011;72604;40.088;18.346;2023-09-18T09:46:46;6.50;;;4.53;;
50872;SDS011;72604;40.088;18.346;2023-09-18T09:49:49;5.22;;;4.10;;
50872;SDS011;72604;40.088;18.346;2023-09-18T09:52:52;6.65;;;3.90;;
50872;SDS011;72604;40.088;18.346;2023-09-18T09:55:54;7.37;;;4.63;;
50872;SDS011;72604;40.088;18.346;2023-09-18T09:59:00;8.05;;;4.65;;
50872;SDS011;72604;40.088;18.346;2023-09-18T10:02:03;6.55;;;3.88;;
50872;SDS011;72604;40.088;18.346;2023-09-18T10:05:05;6.88;;;3.72;;
50872;SDS011;72604;40.088;18.346;2023-09-18T10:08:08;8.48;;;4.40;;
50872;SDS011;72604;40.088;18.346;2023-09-18T10:11:12;8.80;;;3.97;;
50872;SDS011;72604;40.088;18.346;2023-09-18T10:14:19;6.25;;;4.47;;
50872;SDS011;72604;40.088;18.346;2023-09-18T10:17:21;7.78;;;4.45;;
50872;SDS011;72604;40.088;18.346;2023-09-18T10:20:23;5.50;;;4.28;;
50872;SDS011;72604;40.088;18.346;2023-09-18T10:23:33;7.30;;;4.40;;
50872;SDS011;72604;40.088;18.346;2023-09-18T10:26:37;9.27;;;3.72;;
50872;SDS011;72604;40.088;18.346;2023-09-18T10:29:41;6.82;;;3.80;;
50872;SDS011;72604;40.088;18.346;2023-09-18T10:32:44;6.40;;;3.70;;
50872;SDS011;72604;40.088;18.346;2023-09-18T10:35:48;10.25;;;3.90;;
50872;SDS011;72604;40.088;18.346;2023-09-18T10:38:50;9.43;;;3.83;;
50872;SDS011;72604;40.088;18.346;2023-09-18T10:41:54;7.18;;;3.53;;
50872;SDS011;72604;40.088;18.346;2023-09-18T10:44:57;6.40;;;3.57;;
50872;SDS011;72604;40.088;18.346;2023-09-18T10:47:59;6.13;;;3.78;;
50872;SDS011;72604;40.088;18.346;2023-09-18T10:51:04;6.40;;;3.28;;
50872;SDS011;72604;40.088;18.346;2023-09-18T10:54:08;7.35;;;3.67;;
50872;SDS011;72604;40.088;18.346;2023-09-18T10:57:10;9.52;;;3.80;;
50872;SDS011;72604;40.088;18.346;2023-09-18T11:00:13;8.00;;;4.15;;
50872;SDS011;72604;40.088;18.346;2023-09-18T11:03:16;9.52;;;3.92;;
50872;SDS011;72604;40.088;18.346;2023-09-18T11:06:22;8.38;;;4.32;;
50872;SDS011;72604;40.088;18.346;2023-09-18T11:09:29;8.02;;;4.00;;
50872;SDS011;72604;40.088;18.346;2023-09-18T11:13:05;6.05;;;3.67;;
50872;SDS011;72604;40.088;18.346;2023-09-18T11:16:03;7.75;;;4.18;;
50872;SDS011;72604;40.088;18.346;2023-09-18T11:19:17;8.88;;;4.15;;
50872;SDS011;72604;40.088;18.346;2023-09-18T11:22:21;8.30;;;4.40;;
50872;SDS011;72604;40.088;18.346;2023-09-18T11:28:36;7.03;;;4.00;;
50872;SDS011;72604;40.088;18.346;2023-09-18T11:31:41;7.88;;;4.05;;
50872;SDS011;72604;40.088;18.346;2023-09-18T11:34:45;9.93;;;4.47;;
50872;SDS011;72604;40.088;18.346;2023-09-18T11:38:11;11.85;;;4.60;;
50872;SDS011;72604;40.088;18.346;2023-09-18T11:41:19;6.40;;;3.47;;
50872;SDS011;72604;40.088;18.346;2023-09-18T11:47:30;10.07;;;4.20;;
50872;SDS011;72604;40.088;18.346;2023-09-18T11:50:34;9.18;;;4.10;;
50872;SDS011;72604;40.088;18.346;2023-09-18T11:53:37;12.75;;;4.75;;
50872;SDS011;72604;40.088;18.346;2023-09-18T11:56:42;7.00;;;4.20;;
50872;SDS011;72604;40.088;18.346;2023-09-18T11:59:44;7.15;;;3.85;;
50872;SDS011;72604;40.088;18.346;2023-09-18T12:02:48;7.43;;;3.75;;
50872;SDS011;72604;40.088;18.346;2023-09-18T12:05:54;9.52;;;4.20;;
50872;SDS011;72604;40.088;18.346;2023-09-18T12:08:56;10.15;;;4.13;;
50872;SDS011;72604;40.088;18.346;2023-09-18T12:11:59;6.95;;;3.65;;
50872;SDS011;72604;40.088;18.346;2023-09-18T12:15:05;8.73;;;4.07;;
50872;SDS011;72604;40.088;18.346;2023-09-18T12:18:09;10.57;;;4.18;;
50872;SDS011;72604;40.088;18.346;2023-09-18T12:21:13;9.35;;;4.07;;
50872;SDS011;72604;40.088;18.346;2023-09-18T12:24:23;10.80;;;4.70;;
50872;SDS011;72604;40.088;18.346;2023-09-18T12:27:25;8.35;;;3.90;;
50872;SDS011;72604;40.088;18.346;2023-09-18T12:30:28;10.15;;;4.18;;
50872;SDS011;72604;40.088;18.346;2023-09-18T12:33:33;12.35;;;4.82;;
50872;SDS011;72604;40.088;18.346;2023-09-18T12:36:35;11.63;;;4.10;;
50872;SDS011;72604;40.088;18.346;2023-09-18T12:39:38;12.43;;;4.40;;
50872;SDS011;72604;40.088;18.346;2023-09-18T12:42:39;9.20;;;4.38;;
50872;SDS011;72604;40.088;18.346;2023-09-18T12:45:44;9.88;;;3.95;;
50872;SDS011;72604;40.088;18.346;2023-09-18T12:48:47;10.73;;;4.25;;
50872;SDS011;72604;40.088;18.346;2023-09-18T12:51:59;13.27;;;4.53;;
50872;SDS011;72604;40.088;18.346;2023-09-18T12:55:01;9.43;;;4.13;;
50872;SDS011;72604;40.088;18.346;2023-09-18T12:58:06;11.63;;;3.47;;
50872;SDS011;72604;40.088;18.346;2023-09-18T13:01:11;10.25;;;4.03;;
50872;SDS011;72604;40.088;18.346;2023-09-18T13:04:13;7.93;;;4.00;;
50872;SDS011;72604;40.088;18.346;2023-09-18T13:07:15;10.93;;;4.05;;
50872;SDS011;72604;40.088;18.346;2023-09-18T13:10:18;8.35;;;4.10;;
50872;SDS011;72604;40.088;18.346;2023-09-18T13:13:23;13.02;;;4.10;;
50872;SDS011;72604;40.088;18.346;2023-09-18T13:16:27;12.43;;;4.78;;
50872;SDS011;72604;40.088;18.346;2023-09-18T13:19:29;10.25;;;4.75;;
50872;SDS011;72604;40.088;18.346;2023-09-18T13:22:31;9.35;;;3.67;;
50872;SDS011;72604;40.088;18.346;2023-09-18T13:25:34;11.52;;;4.65;;
50872;SDS011;72604;40.088;18.346;2023-09-18T13:28:36;10.77;;;4.28;;
50872;SDS011;72604;40.088;18.346;2023-09-18T13:31:38;10.70;;;3.92;;
50872;SDS011;72604;40.088;18.346;2023-09-18T13:34:40;11.38;;;4.13;;
50872;SDS011;72604;40.088;18.346;2023-09-18T13:37:42;15.07;;;3.88;;
50872;SDS011;72604;40.088;18.346;2023-09-18T13:40:46;13.73;;;4.30;;
50872;SDS011;72604;40.088;18.346;2023-09-18T13:43:48;14.50;;;4.20;;
50872;SDS011;72604;40.088;18.346;2023-09-18T13:46:51;11.80;;;4.22;;
50872;SDS011;72604;40.088;18.346;2023-09-18T13:49:53;12.55;;;4.25;;
50872;SDS011;72604;40.088;18.346;2023-09-18T13:52:54;15.10;;;4.50;;
50872;SDS011;72604;40.088;18.346;2023-09-18T13:55:57;8.38;;;3.60;;
50872;SDS011;72604;40.088;18.346;2023-09-18T13:58:58;13.43;;;4.05;;
50872;SDS011;72604;40.088;18.346;2023-09-18T14:02:01;14.40;;;4.50;;
50872;SDS011;72604;40.088;18.346;2023-09-18T14:05:03;14.23;;;5.03;;
50872;SDS011;72604;40.088;18.346;2023-09-18T14:08:05;15.27;;;4.40;;
50872;SDS011;72604;40.088;18.346;2023-09-18T14:11:07;9.00;;;4.03;;
50872;SDS011;72604;40.088;18.346;2023-09-18T14:14:09;12.55;;;4.35;;
50872;SDS011;72604;40.088;18.346;2023-09-18T14:17:29;10.32;;;4.13;;
50872;SDS011;72604;40.088;18.346;2023-09-18T14:20:31;12.77;;;4.05;;
50872;SDS011;72604;40.088;18.346;2023-09-18T14:23:33;14.32;;;4.47;;
50872;SDS011;72604;40.088;18.346;2023-09-18T14:26:36;13.35;;;4.38;;
50872;SDS011;72604;40.088;18.346;2023-09-18T14:29:42;11.73;;;3.90;;
50872;SDS011;72604;40.088;18.346;2023-09-18T14:32:44;14.57;;;4.32;;
50872;SDS011;72604;40.088;18.346;2023-09-18T14:35:46;11.02;;;3.97;;
50872;SDS011;72604;40.088;18.346;2023-09-18T14:38:48;12.73;;;4.50;;
50872;SDS011;72604;40.088;18.346;2023-09-18T14:41:50;10.02;;;4.00;;
50872;SDS011;72604;40.088;18.346;2023-09-18T14:44:52;11.32;;;4.20;;
50872;SDS011;72604;40.088;18.346;2023-09-18T14:47:54;10.88;;;4.00;;
50872;SDS011;72604;40.088;18.346;2023-09-18T14:50:56;17.35;;;4.60;;
50872;SDS011;72604;40.088;18.346;2023-09-18T14:53:58;11.77;;;4.60;;
50872;SDS011;72604;40.088;18.346;2023-09-18T14:57:01;13.23;;;4.40;;
50872;SDS011;72604;40.088;18.346;2023-09-18T15:00:04;10.70;;;4.05;;
50872;SDS011;72604;40.088;18.346;2023-09-18T15:03:07;14.07;;;4.20;;
50872;SDS011;72604;40.088;18.346;2023-09-18T15:06:10;11.48;;;3.80;;
50872;SDS011;72604;40.088;18.346;2023-09-18T15:09:13;17.05;;;5.20;;
50872;SDS011;72604;40.088;18.346;2023-09-18T15:12:15;15.50;;;4.82;;
50872;SDS011;72604;40.088;18.346;2023-09-18T15:15:17;15.80;;;4.80;;
50872;SDS011;72604;40.088;18.346;2023-09-18T15:18:19;10.68;;;3.85;;
50872;SDS011;72604;40.088;18.346;2023-09-18T15:21:21;8.52;;;4.22;;
50872;SDS011;72604;40.088;18.346;2023-09-18T15:24:23;17.42;;;5.45;;
50872;SDS011;72604;40.088;18.346;2023-09-18T15:27:25;10.75;;;4.40;;
50872;SDS011;72604;40.088;18.346;2023-09-18T15:30:27;18.92;;;5.53;;
50872;SDS011;72604;40.088;18.346;2023-09-18T15:33:29;12.95;;;4.35;;
50872;SDS011;72604;40.088;18.346;2023-09-18T15:36:31;15.63;;;4.90;;
50872;SDS011;72604;40.088;18.346;2023-09-18T15:39:33;14.90;;;4.43;;
50872;SDS011;72604;40.088;18.346;2023-09-18T15:42:37;14.10;;;4.70;;
50872;SDS011;72604;40.088;18.346;2023-09-18T15:45:39;11.60;;;4.30;;
50872;SDS011;72604;40.088;18.346;2023-09-18T15:48:42;11.68;;;4.35;;
50872;SDS011;72604;40.088;18.346;2023-09-18T15:51:44;10.98;;;4.35;;
50872;SDS011;72604;40.088;18.346;2023-09-18T15:54:46;10.90;;;3.95;;
50872;SDS011;72604;40.088;18.346;2023-09-18T15:57:48;9.68;;;3.55;;
50872;SDS011;72604;40.088;18.346;2023-09-18T16:00:50;10.32;;;4.00;;
50872;SDS011;72604;40.088;18.346;2023-09-18T16:03:52;10.20;;;3.85;;
50872;SDS011;72604;40.088;18.346;2023-09-18T16:06:54;8.45;;;4.07;;
50872;SDS011;72604;40.088;18.346;2023-09-18T16:09:56;9.95;;;3.58;;
50872;SDS011;72604;40.088;18.346;2023-09-18T16:12:59;10.25;;;3.65;;
50872;SDS011;72604;40.088;18.346;2023-09-18T16:16:01;9.10;;;3.65;;
50872;SDS011;72604;40.088;18.346;2023-09-18T16:19:04;13.50;;;7.13;;
50872;SDS011;72604;40.088;18.346;2023-09-18T16:22:08;24.27;;;15.70;;
50872;SDS011;72604;40.088;18.346;2023-09-18T16:28:14;15.75;;;11.40;;
50872;SDS011;72604;40.088;18.346;2023-09-18T16:31:16;35.85;;;25.50;;
50872;SDS011;72604;40.088;18.346;2023-09-18T16:34:18;32.25;;;20.30;;
50872;SDS011;72604;40.088;18.346;2023-09-18T16:37:24;26.23;;;17.70;;
50872;SDS011;72604;40.088;18.346;2023-09-18T16:40:26;18.65;;;14.80;;
50872;SDS011;72604;40.088;18.346;2023-09-18T16:43:28;42.08;;;32.28;;
50872;SDS011;72604;40.088;18.346;2023-09-18T16:46:36;12.23;;;9.88;;
50872;SDS011;72604;40.088;18.346;2023-09-18T16:49:38;18.00;;;12.15;;
50872;SDS011;72604;40.088;18.346;2023-09-18T16:52:40;10.60;;;8.25;;
50872;SDS011;72604;40.088;18.346;2023-09-18T16:55:47;13.75;;;9.18;;
50872;SDS011;72604;40.088;18.346;2023-09-18T16:58:49;14.00;;;9.15;;
50872;SDS011;72604;40.088;18.346;2023-09-18T17:01:53;13.73;;;7.97;;
50872;SDS011;72604;40.088;18.346;2023-09-18T17:04:55;10.40;;;7.63;;
50872;SDS011;72604;40.088;18.346;2023-09-18T17:07:58;10.50;;;7.10;;
50872;SDS011;72604;40.088;18.346;2023-09-18T17:11:00;15.77;;;7.47;;
50872;SDS011;72604;40.088;18.346;2023-09-18T17:14:03;18.95;;;8.52;;
50872;SDS011;72604;40.088;18.346;2023-09-18T17:17:06;13.85;;;8.27;;
50872;SDS011;72604;40.088;18.346;2023-09-18T17:20:09;8.63;;;7.68;;
50872;SDS011;72604;40.088;18.346;2023-09-18T17:23:11;15.20;;;7.93;;
50872;SDS011;72604;40.088;18.346;2023-09-18T17:26:14;16.35;;;7.47;;
50872;SDS011;72604;40.088;18.346;2023-09-18T17:29:17;14.68;;;7.75;;
50872;SDS011;72604;40.088;18.346;2023-09-18T17:32:20;11.38;;;6.68;;
50872;SDS011;72604;40.088;18.346;2023-09-18T17:35:22;12.73;;;6.40;;
50872;SDS011;72604;40.088;18.346;2023-09-18T17:38:25;9.82;;;6.60;;
50872;SDS011;72604;40.088;18.346;2023-09-18T17:41:27;12.00;;;7.45;;
50872;SDS011;72604;40.088;18.346;2023-09-18T17:44:30;8.52;;;7.65;;
50872;SDS011;72604;40.088;18.346;2023-09-18T17:47:32;9.93;;;7.40;;
50872;SDS011;72604;40.088;18.346;2023-09-18T17:50:35;9.50;;;6.90;;
50872;SDS011;72604;40.088;18.346;2023-09-18T17:53:38;9.50;;;6.95;;
50872;SDS011;72604;40.088;18.346;2023-09-18T17:56:41;11.88;;;7.05;;
50872;SDS011;72604;40.088;18.346;2023-09-18T17:59:43;11.02;;;6.90;;
50872;SDS011;72604;40.088;18.346;2023-09-18T18:02:46;10.55;;;6.95;;
50872;SDS011;72604;40.088;18.346;2023-09-18T18:05:49;10.50;;;7.63;;
50872;SDS011;72604;40.088;18.346;2023-09-18T18:08:52;8.82;;;7.93;;
50872;SDS011;72604;40.088;18.346;2023-09-18T18:11:55;10.07;;;7.53;;
50872;SDS011;72604;40.088;18.346;2023-09-18T18:14:58;9.90;;;8.18;;